createdAt,value
2022-08-19T00:01:38.090Z,97842.72
2022-08-19T00:04:08.657Z,97842.13
2022-08-19T00:06:37.527Z,97846.47
2022-08-19T00:09:06.530Z,97841.91
2022-08-19T00:11:36.944Z,97847.13
2022-08-19T00:14:06.149Z,97852.06
2022-08-19T00:16:33.885Z,97853.47
2022-08-19T00:19:01.293Z,97853.06
2022-08-19T00:21:28.734Z,97858.03
2022-08-19T00:24:00.601Z,97872.06
2022-08-19T00:26:28.920Z,97873.75
2022-08-19T00:28:56.855Z,97859.69
2022-08-19T00:31:26.121Z,97855.53
2022-08-19T00:33:53.521Z,97857.41
2022-08-19T00:36:21.609Z,97860.19
2022-08-19T00:38:49.467Z,97859.19
2022-08-19T00:41:21.662Z,97847.22
2022-08-19T00:44:26.813Z,97831.09
2022-08-19T00:46:58.075Z,97835.84
2022-08-19T00:49:29.818Z,97826.50
2022-08-19T00:52:03.445Z,97840.16
2022-08-19T00:54:32.439Z,97845.31
2022-08-19T00:57:00.710Z,97840.31
2022-08-19T01:00:00.992Z,97836.16
2022-08-19T01:02:18.373Z,97853.50
2022-08-19T01:04:45.724Z,97853.50
2022-08-19T01:07:15.200Z,97857.66
2022-08-19T01:09:45.009Z,97862.38
2022-08-19T01:12:12.726Z,97869.22
2022-08-19T01:14:41.288Z,97863.84
2022-08-19T01:17:11.995Z,97860.56
2022-08-19T01:19:43.619Z,97856.28
2022-08-19T01:22:33.664Z,97856.44
2022-08-19T01:25:01.861Z,97854.19
2022-08-19T01:27:43.236Z,97852.13
2022-08-19T01:30:19.136Z,97849.69
2022-08-19T01:32:46.804Z,97834.72
2022-08-19T01:35:18.704Z,97851.28
2022-08-19T01:37:49.375Z,97850.06
2022-08-19T01:40:17.890Z,97849.22
2022-08-19T01:42:45.332Z,97841.34
2022-08-19T01:45:12.775Z,97846.50
2022-08-19T01:47:40.322Z,97847.50
2022-08-19T01:50:10.148Z,97853.66
2022-08-19T01:52:39.069Z,97845.59
2022-08-19T01:55:08.951Z,97844.34
2022-08-19T01:57:36.823Z,97840.56
2022-08-19T02:00:07.925Z,97839.94
2022-08-19T02:02:39.077Z,97836.03
2022-08-19T02:05:08.718Z,97846.94
2022-08-19T02:07:41.225Z,97844.66
2022-08-19T02:10:16.650Z,97848.81
2022-08-19T02:12:44.616Z,97846.75
2022-08-19T02:15:12.890Z,97852.53
2022-08-19T02:17:40.330Z,97852.31
2022-08-19T02:20:08.738Z,97847.41
2022-08-19T02:22:36.445Z,97849.25
2022-08-19T02:25:05.839Z,97854.81
2022-08-19T02:27:34.370Z,97857.25
2022-08-19T02:30:02.064Z,97867.25
2022-08-19T02:32:31.387Z,97868.06
2022-08-19T02:34:58.811Z,97872.81
2022-08-19T02:37:44.595Z,97871.44
2022-08-19T02:40:12.864Z,97874.22
2022-08-19T02:42:41.831Z,97861.97
2022-08-19T02:45:09.738Z,97855.13
2022-08-19T02:47:37.133Z,97857.94
2022-08-19T02:50:05.922Z,97853.69
2022-08-19T02:52:34.798Z,97854.47
2022-08-19T02:55:02.338Z,97846.34
2022-08-19T02:57:32.282Z,97851.59
2022-08-19T02:59:59.962Z,97849.16
2022-08-19T03:02:28.148Z,97839.09
2022-08-19T03:04:55.540Z,97837.97
2022-08-19T03:07:22.913Z,97844.13
2022-08-19T03:09:50.291Z,97842.16
2022-08-19T03:12:17.705Z,97839.84
2022-08-19T03:14:46.605Z,97856.59
2022-08-19T03:17:14.359Z,97858.53
2022-08-19T03:19:41.833Z,97860.25
2022-08-19T03:22:09.697Z,97858.09
2022-08-19T03:24:37.855Z,97854.56
2022-08-19T03:27:06.053Z,97860.25
2022-08-19T03:29:34.219Z,97863.00
2022-08-19T03:32:32.629Z,97867.34
2022-08-19T03:34:58.474Z,97875.22
2022-08-19T03:37:26.928Z,97868.13
2022-08-19T03:39:54.380Z,97866.56
2022-08-19T03:42:31.954Z,97872.97
2022-08-19T03:45:01.058Z,97864.34
2022-08-19T03:47:28.469Z,97866.91
2022-08-19T03:49:55.853Z,97862.22
2022-08-19T03:52:23.247Z,97864.84
2022-08-19T03:54:50.556Z,97864.97
2022-08-19T03:57:17.916Z,97853.56
2022-08-19T03:59:45.666Z,97860.69
2022-08-19T04:02:14.121Z,97864.75
2022-08-19T04:04:44.127Z,97866.53
2022-08-19T04:07:16.183Z,97869.69
2022-08-19T04:09:43.661Z,97869.28
2022-08-19T04:12:11.013Z,97865.47
2022-08-19T04:14:38.455Z,97865.16
2022-08-19T04:17:06.215Z,97861.41
2022-08-19T04:19:35.397Z,97857.50
2022-08-19T04:22:03.614Z,97862.75
2022-08-19T04:24:31.233Z,97864.03
2022-08-19T04:27:00.174Z,97861.34
2022-08-19T04:29:28.010Z,97869.00
2022-08-19T04:31:57.113Z,97867.63
2022-08-19T04:34:27.545Z,97858.41
2022-08-19T04:36:56.679Z,97860.97
2022-08-19T04:39:49.400Z,97860.00
2022-08-19T04:42:36.988Z,97856.09
2022-08-19T04:45:12.491Z,97853.16
2022-08-19T04:47:49.382Z,97861.06
2022-08-19T04:50:28.414Z,97857.78
2022-08-19T04:52:56.909Z,97858.59
2022-08-19T04:55:26.704Z,97862.75
2022-08-19T04:57:54.948Z,97867.28
2022-08-19T05:00:22.413Z,97861.06
2022-08-19T05:02:50.272Z,97864.00
2022-08-19T05:05:18.157Z,97866.31
2022-08-19T05:07:45.545Z,97877.69
2022-08-19T05:10:13.670Z,97882.78
2022-08-19T05:12:41.208Z,97892.88
2022-08-19T05:15:12.091Z,97885.66
2022-08-19T05:17:59.450Z,97895.81
2022-08-19T05:20:45.258Z,97900.94
2022-08-19T05:23:22.146Z,97914.22
2022-08-19T05:25:51.506Z,97913.16
2022-08-19T05:28:20.196Z,97922.50
2022-08-19T05:30:47.893Z,97924.78
2022-08-19T05:33:15.454Z,97934.63
2022-08-19T05:35:42.799Z,97943.16
2022-08-19T05:38:10.282Z,97946.47
2022-08-19T05:40:38.599Z,97957.47
2022-08-19T05:43:07.737Z,97953.16
2022-08-19T05:45:41.311Z,97955.03
2022-08-19T05:48:12.020Z,97959.75
2022-08-19T05:50:41.137Z,97967.63
2022-08-19T05:53:09.918Z,97965.84
2022-08-19T05:55:39.429Z,97970.84
2022-08-19T05:58:08.534Z,97966.28
2022-08-19T06:00:37.477Z,97966.22
2022-08-19T06:03:12.385Z,97973.34
2022-08-19T06:05:46.191Z,97978.06
2022-08-19T06:08:19.647Z,97970.00
2022-08-19T06:10:47.227Z,97978.63
2022-08-19T06:13:14.788Z,97977.41
2022-08-19T06:15:45.103Z,97976.59
2022-08-19T06:18:12.655Z,97969.22
2022-08-19T06:20:55.617Z,97968.41
2022-08-19T06:23:24.381Z,97962.72
2022-08-19T06:25:51.912Z,97957.00
2022-08-19T06:28:19.472Z,97960.50
2022-08-19T06:30:47.170Z,97954.38
2022-08-19T06:33:14.534Z,97958.13
2022-08-19T06:35:42.916Z,97959.72
2022-08-19T06:38:10.528Z,97949.19
2022-08-19T06:40:39.308Z,97956.69
2022-08-19T06:43:08.550Z,97957.72
2022-08-19T06:45:39.698Z,97958.66
2022-08-19T06:48:07.987Z,97956.69
2022-08-19T06:50:39.290Z,97959.72
2022-08-19T06:53:07.066Z,97962.69
2022-08-19T06:55:34.461Z,97961.94
2022-08-19T06:58:05.244Z,97973.53
2022-08-19T07:00:33.078Z,97974.56
2022-08-19T07:03:05.988Z,97975.13
2022-08-19T07:05:45.605Z,97973.13
2022-08-19T07:08:14.273Z,97968.16
2022-08-19T07:10:45.820Z,97975.19
2022-08-19T07:13:13.235Z,97976.84
2022-08-19T07:15:41.008Z,97973.53
2022-08-19T07:18:11.646Z,97969.75
2022-08-19T07:20:41.941Z,97972.03
2022-08-19T07:23:10.567Z,97980.53
2022-08-19T07:25:44.467Z,97973.28
2022-08-19T07:28:15.789Z,97977.81
2022-08-19T07:30:52.773Z,97985.88
2022-08-19T07:33:20.735Z,97977.56
2022-08-19T07:35:48.179Z,97986.44
2022-08-19T07:38:16.227Z,97986.66
2022-08-19T07:40:46.638Z,97976.69
2022-08-19T07:43:14.283Z,97980.59
2022-08-19T07:45:45.473Z,97979.97
2022-08-19T07:48:13.440Z,97981.03
2022-08-19T07:50:40.966Z,97977.28
2022-08-19T07:53:08.369Z,97977.09
2022-08-19T07:55:42.086Z,97981.19
2022-08-19T07:58:14.812Z,97981.84
2022-08-19T08:00:43.223Z,97989.09
2022-08-19T08:03:11.338Z,97988.44
2022-08-19T08:05:57.333Z,97992.38
2022-08-19T08:08:44.508Z,97999.44
2022-08-19T08:11:19.857Z,97998.19
2022-08-19T08:14:00.276Z,97995.75
2022-08-19T08:16:30.975Z,97995.28
2022-08-19T08:18:59.077Z,98004.63
2022-08-19T08:21:26.621Z,98008.13
2022-08-19T08:23:56.481Z,98010.19
2022-08-19T08:26:24.425Z,98008.75
2022-08-19T08:28:52.281Z,98010.63
2022-08-19T08:31:20.234Z,98009.38
2022-08-19T08:33:48.487Z,98002.97
2022-08-19T08:36:16.666Z,97998.25
2022-08-19T08:38:47.054Z,97996.00
2022-08-19T08:41:37.724Z,97987.56
2022-08-19T08:44:05.698Z,97994.06
2022-08-19T08:46:40.983Z,97993.91
2022-08-19T08:49:21.474Z,97991.03
2022-08-19T08:52:32.160Z,97997.66
2022-08-19T08:55:10.189Z,97997.44
2022-08-19T08:57:44.026Z,98000.13
2022-08-19T09:00:19.208Z,98000.75
2022-08-19T09:02:50.768Z,98004.06
2022-08-19T09:05:22.270Z,98000.75
2022-08-19T09:08:12.090Z,98002.41
2022-08-19T09:10:55.732Z,98010.72
2022-08-19T09:13:41.733Z,98008.00
2022-08-19T09:16:19.325Z,98004.28
2022-08-19T09:19:02.897Z,98013.19
2022-08-19T09:21:34.280Z,98016.28
2022-08-19T09:24:03.415Z,98017.53
2022-08-19T09:26:47.614Z,98020.25
2022-08-19T09:29:22.459Z,98024.78
2022-08-19T09:31:50.954Z,98017.31
2022-08-19T09:34:22.117Z,98019.88
2022-08-19T09:36:54.088Z,98023.56
2022-08-19T09:39:22.672Z,98026.44
2022-08-19T09:41:50.956Z,98023.34
2022-08-19T09:44:21.183Z,98018.97
2022-08-19T09:46:49.314Z,98028.53
2022-08-19T09:49:18.515Z,98027.06
2022-08-19T09:51:51.196Z,98025.81
2022-08-19T09:54:23.639Z,98024.56
2022-08-19T09:56:53.709Z,98026.63
2022-08-19T09:59:21.405Z,98026.19
2022-08-19T10:01:48.882Z,98019.38
2022-08-19T10:04:20.437Z,98024.56
2022-08-19T10:06:51.735Z,98020.22
2022-08-19T10:09:33.517Z,98025.44
2022-08-19T10:12:03.846Z,98016.09
2022-08-19T10:14:32.160Z,98022.97
2022-08-19T10:17:01.289Z,98020.03
2022-08-19T10:19:36.870Z,98020.47
2022-08-19T10:22:05.891Z,98017.94
2022-08-19T10:24:37.501Z,98027.06
2022-08-19T10:27:06.557Z,98016.28
2022-08-19T10:29:36.284Z,98014.38
2022-08-19T10:32:14.289Z,98016.03
2022-08-19T10:34:48.227Z,98005.03
2022-08-19T10:37:28.874Z,98007.91
2022-08-19T10:39:58.898Z,98009.25
2022-08-19T10:42:26.523Z,98014.94
2022-08-19T10:44:53.874Z,98010.56
2022-08-19T10:47:26.109Z,98014.69
2022-08-19T10:50:17.405Z,98007.28
2022-08-19T10:52:49.800Z,98013.81
2022-08-19T10:55:39.348Z,98010.94
2022-08-19T10:58:17.038Z,98020.81
2022-08-19T11:00:44.960Z,98020.16
2022-08-19T11:03:12.743Z,98019.25
2022-08-19T11:05:40.937Z,98017.91
2022-08-19T11:08:23.222Z,98012.72
2022-08-19T11:11:00.124Z,98011.13
2022-08-19T11:13:37.014Z,98012.09
2022-08-19T11:16:14.877Z,98013.66
2022-08-19T11:18:46.420Z,98011.94
2022-08-19T11:21:21.122Z,98008.22
2022-08-19T11:23:50.169Z,98004.25
2022-08-19T11:26:18.318Z,98004.28
2022-08-19T11:28:46.343Z,98002.41
2022-08-19T11:31:15.721Z,98002.78
2022-08-19T11:33:47.092Z,98001.75
2022-08-19T11:36:16.331Z,98010.91
2022-08-19T11:38:44.217Z,98001.91
2022-08-19T11:41:12.039Z,98004.31
2022-08-19T11:43:40.858Z,98002.84
2022-08-19T11:46:14.174Z,98002.66
2022-08-19T11:48:42.126Z,98002.66
2022-08-19T11:51:12.527Z,98008.09
2022-08-19T11:53:40.375Z,98008.53
2022-08-19T11:56:09.556Z,98001.09
2022-08-19T11:58:37.226Z,98010.44
2022-08-19T12:01:08.691Z,98010.63
2022-08-19T12:03:36.502Z,98010.06
2022-08-19T12:06:13.834Z,98010.38
2022-08-19T12:08:42.353Z,98011.50
2022-08-19T12:11:10.982Z,98008.81
2022-08-19T12:13:39.845Z,98006.84
2022-08-19T12:16:13.049Z,97999.53
2022-08-19T12:18:47.656Z,98006.03
2022-08-19T12:21:16.322Z,98003.06
2022-08-19T12:23:45.797Z,97999.91
2022-08-19T12:26:13.458Z,98003.31
2022-08-19T12:28:40.833Z,98002.09
2022-08-19T12:31:08.517Z,98007.16
2022-08-19T12:33:36.326Z,98000.09
2022-08-19T12:36:06.386Z,98004.91
2022-08-19T12:38:35.456Z,98008.88
2022-08-19T12:41:06.420Z,98004.34
2022-08-19T12:43:35.906Z,98012.75
2022-08-19T12:46:05.223Z,98008.19
2022-08-19T12:48:34.794Z,98009.06
2022-08-19T12:51:10.267Z,98009.16
2022-08-19T12:53:39.029Z,98006.94
2022-08-19T12:56:12.368Z,98012.13
2022-08-19T12:58:42.586Z,98013.84
2022-08-19T13:01:17.843Z,98010.50
2022-08-19T13:03:49.441Z,98011.56
2022-08-19T13:06:19.039Z,98008.22
2022-08-19T13:08:47.716Z,98010.03
2022-08-19T13:11:20.107Z,98009.13
2022-08-19T13:13:49.446Z,98012.66
2022-08-19T13:16:17.040Z,98021.03
2022-08-19T13:18:48.265Z,98018.53
2022-08-19T13:21:15.942Z,98019.19
2022-08-19T13:23:43.543Z,98015.78
2022-08-19T13:26:12.733Z,98016.19
2022-08-19T13:29:00.168Z,98018.13
2022-08-19T13:31:48.742Z,98022.50
2022-08-19T13:34:18.030Z,98018.53
2022-08-19T13:36:45.468Z,98015.16
2022-08-19T13:39:13.384Z,98013.13
2022-08-19T13:41:48.989Z,98015.34
2022-08-19T13:44:19.236Z,98014.38
2022-08-19T13:46:48.057Z,98017.97
2022-08-19T13:49:15.859Z,98012.41
2022-08-19T13:51:44.733Z,98015.72
2022-08-19T13:54:12.979Z,98014.44
2022-08-19T13:56:45.227Z,98016.53
2022-08-19T13:59:13.101Z,98019.53
2022-08-19T14:01:40.939Z,98012.38
2022-08-19T14:04:09.092Z,98016.84
2022-08-19T14:06:36.985Z,98011.84
2022-08-19T14:09:05.656Z,98012.75
2022-08-19T14:11:33.068Z,98023.31
2022-08-19T14:14:00.522Z,98016.28
2022-08-19T14:16:28.305Z,98012.22
2022-08-19T14:18:56.019Z,98011.34
2022-08-19T14:21:25.245Z,98011.72
2022-08-19T14:23:53.374Z,98023.22
2022-08-19T14:26:22.016Z,98021.97
2022-08-19T14:28:50.356Z,98030.41
2022-08-19T14:31:19.950Z,98029.53
2022-08-19T14:33:48.784Z,98027.22
2022-08-19T14:36:16.188Z,98021.34
2022-08-19T14:38:44.403Z,98022.16
2022-08-19T14:41:17.242Z,98018.91
2022-08-19T14:43:50.791Z,98007.22
2022-08-19T14:46:23.462Z,98004.34
2022-08-19T14:48:53.126Z,98012.22
2022-08-19T14:51:22.635Z,98021.63
2022-08-19T14:53:51.202Z,98019.59
2022-08-19T14:56:22.454Z,98017.00
2022-08-19T14:58:53.382Z,98018.06
2022-08-19T15:01:22.882Z,98018.78
2022-08-19T15:03:53.965Z,98015.25
2022-08-19T15:06:22.014Z,98019.97
2022-08-19T15:08:51.771Z,98029.97
2022-08-19T15:11:22.066Z,98026.22
2022-08-19T15:13:49.665Z,98033.47
2022-08-19T15:16:18.501Z,98031.22
2022-08-19T15:18:47.141Z,98040.09
2022-08-19T15:21:17.440Z,98042.47
2022-08-19T15:23:55.056Z,98041.19
2022-08-19T15:26:22.738Z,98047.13
2022-08-19T15:28:50.218Z,98052.91
2022-08-19T15:31:28.417Z,98052.28
2022-08-19T15:33:58.444Z,98057.53
2022-08-19T15:36:27.027Z,98061.34
2022-08-19T15:38:55.528Z,98063.56
2022-08-19T15:41:27.449Z,98061.81
2022-08-19T15:43:59.504Z,98063.19
2022-08-19T15:46:29.138Z,98069.00
2022-08-19T15:49:00.075Z,98079.66
2022-08-19T15:51:30.537Z,98078.78
2022-08-19T15:53:59.340Z,98072.16
2022-08-19T15:56:27.646Z,98070.44
2022-08-19T15:59:13.799Z,98066.28
2022-08-19T16:02:00.805Z,98064.38
2022-08-19T16:04:46.788Z,98056.81
2022-08-19T16:07:14.373Z,98054.31
2022-08-19T16:09:50.030Z,98060.97
2022-08-19T16:12:18.980Z,98055.06
2022-08-19T16:14:48.501Z,98057.28
2022-08-19T16:17:16.827Z,98063.47
2022-08-19T16:19:44.292Z,98055.53
2022-08-19T16:22:11.694Z,98059.03
2022-08-19T16:24:39.100Z,98058.84
2022-08-19T16:27:06.519Z,98062.38
2022-08-19T16:29:39.127Z,98068.56
2022-08-19T16:32:10.394Z,98061.81
2022-08-19T16:34:40.066Z,98049.25
2022-08-19T16:37:07.943Z,98064.50
2022-08-19T16:39:35.356Z,98063.84
2022-08-19T16:42:04.827Z,98070.47
2022-08-19T16:44:35.861Z,98066.31
2022-08-19T16:47:03.346Z,98061.44
2022-08-19T16:49:54.129Z,98074.28
2022-08-19T16:52:20.069Z,98079.75
2022-08-19T16:54:48.078Z,98069.84
2022-08-19T16:57:16.067Z,98069.28
2022-08-19T16:59:49.283Z,98067.81
2022-08-19T17:02:23.386Z,98076.03
2022-08-19T17:04:58.612Z,98074.38
2022-08-19T17:07:27.753Z,98072.69
2022-08-19T17:09:55.834Z,98076.94
2022-08-19T17:12:30.543Z,98074.91
2022-08-19T17:15:01.447Z,98075.41
2022-08-19T17:17:29.843Z,98074.41
2022-08-19T17:19:59.173Z,98076.41
2022-08-19T17:22:26.968Z,98084.84
2022-08-19T17:24:56.319Z,98074.66
2022-08-19T17:27:26.986Z,98079.28
2022-08-19T17:29:59.908Z,98081.88
2022-08-19T17:32:27.570Z,98086.31
2022-08-19T17:34:54.956Z,98078.19
2022-08-19T17:37:22.996Z,98083.81
2022-08-19T17:39:50.441Z,98086.63
2022-08-19T17:42:17.811Z,98087.44
2022-08-19T17:44:50.771Z,98090.13
2022-08-19T17:47:19.557Z,98089.09
2022-08-19T17:49:47.186Z,98092.03
2022-08-19T17:52:14.608Z,98090.81
2022-08-19T17:54:41.987Z,98090.94
2022-08-19T17:57:09.633Z,98093.91
2022-08-19T17:59:39.927Z,98088.72
2022-08-19T18:02:10.131Z,98086.41
2022-08-19T18:04:38.956Z,98090.13
2022-08-19T18:07:06.448Z,98087.50
2022-08-19T18:09:41.743Z,98092.16
2022-08-19T18:12:12.701Z,98095.31
2022-08-19T18:14:41.634Z,98103.03
2022-08-19T18:17:12.384Z,98101.84
2022-08-19T18:19:43.009Z,98107.19
2022-08-19T18:22:36.788Z,98110.13
2022-08-19T18:25:10.742Z,98112.81
2022-08-19T18:27:38.152Z,98113.56
2022-08-19T18:30:07.576Z,98112.63
2022-08-19T18:32:35.354Z,98110.50
2022-08-19T18:35:06.489Z,98110.22
2022-08-19T18:37:33.815Z,98109.13
2022-08-19T18:40:19.751Z,98114.50
2022-08-19T18:43:23.568Z,98125.97
2022-08-19T18:46:10.168Z,98118.94
2022-08-19T18:48:57.065Z,98129.03
2022-08-19T18:51:28.453Z,98122.06
2022-08-19T18:53:58.794Z,98124.63
2022-08-19T18:56:31.162Z,98123.06
2022-08-19T18:59:02.291Z,98129.97
2022-08-19T19:01:36.676Z,98131.06
2022-08-19T19:04:10.590Z,98137.81
2022-08-19T19:06:40.930Z,98131.13
2022-08-19T19:09:13.936Z,98139.69
2022-08-19T19:11:46.502Z,98138.38
2022-08-19T19:14:45.797Z,98143.63
2022-08-19T19:17:12.676Z,98145.50
2022-08-19T19:19:42.673Z,98146.16
2022-08-19T19:22:18.397Z,98143.16
2022-08-19T19:24:45.973Z,98146.59
2022-08-19T19:27:15.073Z,98145.66
2022-08-19T19:29:43.112Z,98150.34
2022-08-19T19:32:26.260Z,98157.06
2022-08-19T19:34:53.970Z,98164.31
2022-08-19T19:37:22.485Z,98165.81
2022-08-19T19:39:50.035Z,98158.31
2022-08-19T19:42:22.628Z,98165.53
2022-08-19T19:44:52.167Z,98165.34
2022-08-19T19:47:21.337Z,98172.94
2022-08-19T19:50:13.350Z,98172.84
2022-08-19T19:52:40.640Z,98170.94
2022-08-19T19:55:09.430Z,98160.28
2022-08-19T19:57:39.263Z,98169.16
2022-08-19T20:00:09.074Z,98179.78
2022-08-19T20:02:36.473Z,98177.94
2022-08-19T20:05:04.177Z,98174.59
2022-08-19T20:07:50.572Z,98180.91
2022-08-19T20:10:18.023Z,98184.97
2022-08-19T20:12:45.364Z,98180.78
2022-08-19T20:15:13.924Z,98183.38
2022-08-19T20:17:42.982Z,98181.25
2022-08-19T20:20:15.026Z,98186.19
2022-08-19T20:22:43.577Z,98186.03
2022-08-19T20:25:12.094Z,98185.59
2022-08-19T20:27:40.318Z,98178.25
2022-08-19T20:30:13.920Z,98184.09
2022-08-19T20:32:47.828Z,98187.75
2022-08-19T20:35:18.672Z,98187.44
2022-08-19T20:37:46.109Z,98187.22
2022-08-19T20:40:14.244Z,98187.53
2022-08-19T20:42:42.989Z,98192.72
2022-08-19T20:45:32.153Z,98191.69
2022-08-19T20:48:03.106Z,98192.41
2022-08-19T20:50:32.008Z,98188.69
2022-08-19T20:52:59.415Z,98186.06
2022-08-19T20:55:28.108Z,98189.28
2022-08-19T20:57:55.910Z,98188.53
2022-08-19T21:00:23.422Z,98186.75
2022-08-19T21:02:50.834Z,98183.91
2022-08-19T21:05:18.500Z,98186.44
2022-08-19T21:07:46.244Z,98185.75
2022-08-19T21:10:14.281Z,98183.84
2022-08-19T21:12:43.681Z,98197.25
2022-08-19T21:15:11.357Z,98189.41
2022-08-19T21:17:38.977Z,98197.91
2022-08-19T21:20:09.527Z,98198.66
2022-08-19T21:22:37.189Z,98192.00
2022-08-19T21:25:05.644Z,98199.69
2022-08-19T21:27:33.391Z,98197.91
2022-08-19T21:30:00.822Z,98192.38
2022-08-19T21:32:28.182Z,98193.72
2022-08-19T21:34:55.609Z,98192.69
2022-08-19T21:37:25.835Z,98194.44
2022-08-19T21:39:54.695Z,98190.22
2022-08-19T21:42:23.880Z,98191.50
2022-08-19T21:44:51.456Z,98203.84
2022-08-19T21:47:18.831Z,98196.97
2022-08-19T21:49:46.305Z,98195.53
2022-08-19T21:52:13.900Z,98201.63
2022-08-19T21:54:41.742Z,98207.59
2022-08-19T21:57:10.535Z,98206.09
2022-08-19T21:59:44.089Z,98203.88
2022-08-19T22:02:22.367Z,98205.50
2022-08-19T22:04:51.349Z,98214.19
2022-08-19T22:07:19.524Z,98207.00
2022-08-19T22:09:47.975Z,98206.34
2022-08-19T22:12:24.575Z,98195.31
2022-08-19T22:14:52.810Z,98204.69
2022-08-19T22:17:22.709Z,98199.63
2022-08-19T22:19:52.370Z,98202.47
2022-08-19T22:22:31.024Z,98202.47
2022-08-19T22:25:29.051Z,98199.97
2022-08-19T22:28:01.691Z,98200.44
2022-08-19T22:30:33.406Z,98206.34
2022-08-19T22:33:03.906Z,98214.56
2022-08-19T22:35:33.660Z,98213.41
2022-08-19T22:38:02.207Z,98220.41
2022-08-19T22:40:31.012Z,98209.44
2022-08-19T22:43:06.351Z,98213.38
2022-08-19T22:45:36.240Z,98214.41
2022-08-19T22:48:07.661Z,98214.34
2022-08-19T22:50:35.911Z,98215.06
2022-08-19T22:53:03.604Z,98219.13
2022-08-19T22:55:31.554Z,98215.78
2022-08-19T22:57:59.097Z,98211.31
2022-08-19T23:00:28.155Z,98208.53
2022-08-19T23:02:57.482Z,98216.59
2022-08-19T23:05:27.479Z,98218.97
2022-08-19T23:07:57.313Z,98217.09
2022-08-19T23:10:27.294Z,98222.84
2022-08-19T23:12:57.854Z,98221.50
2022-08-19T23:15:28.920Z,98228.38
2022-08-19T23:18:02.421Z,98224.69
2022-08-19T23:20:32.912Z,98220.91
2022-08-19T23:23:03.835Z,98228.09
2022-08-19T23:25:33.029Z,98226.41
2022-08-19T23:28:19.542Z,98217.91
2022-08-19T23:30:49.133Z,98229.25
2022-08-19T23:33:51.011Z,98212.09
2022-08-19T23:36:17.622Z,98213.09
2022-08-19T23:38:46.602Z,98204.25
2022-08-19T23:41:15.286Z,98191.88
2022-08-19T23:43:42.989Z,98193.88
2022-08-19T23:46:12.999Z,98192.50
2022-08-19T23:48:40.413Z,98189.50
2022-08-19T23:51:11.703Z,98216.41
2022-08-19T23:53:40.497Z,98215.94
2022-08-19T23:56:09.470Z,98216.91
2022-08-19T23:58:37.897Z,98228.75
